Time;durP1;ratioP1;P1;durP2;ratioP2;P2;SDS_P1;SDS_P2;PMS_P1;PMS_P2;Temp;Humidity;BMP_temperature;BMP_pressure;BME280_temperature;BME280_humidity;BME280_pressure;Samples;Min_cycle;Max_cycle;Signal;HPM_P1;HPM_P2
2021/05/16 00:02:04;;;;;;;16.08;10.05;;;;;;;;;;4914423;29;20300;-61
2021/05/16 00:04:31;;;;;;;24.27;11.25;;;;;;;;;;4927502;29;20158;-61
2021/05/16 00:06:58;;;;;;;21.08;11.32;;;;;;;;;;4926610;29;20080;-61
2021/05/16 00:09:25;;;;;;;18.15;10.18;;;;;;;;;;4922070;29;20510;-61
2021/05/16 00:11:52;;;;;;;21.10;11.27;;;;;;;;;;4926048;29;20136;-61
2021/05/16 00:14:19;;;;;;;18.67;10.38;;;;;;;;;;4927260;29;20048;-61
2021/05/16 00:16:45;;;;;;;24.58;11.00;;;;;;;;;;4926169;29;20390;-61
2021/05/16 00:19:12;;;;;;;25.58;11.43;;;;;;;;;;4926877;29;20044;-61
2021/05/16 00:21:39;;;;;;;25.05;11.23;;;;;;;;;;4921802;29;20040;-61
2021/05/16 00:24:06;;;;;;;25.60;10.90;;;;;;;;;;4926144;29;20058;-61
2021/05/16 00:26:33;;;;;;;25.83;11.48;;;;;;;;;;4925384;29;20539;-61
2021/05/16 00:29:00;;;;;;;27.25;12.43;;;;;;;;;;4930686;29;20119;-61
2021/05/16 00:31:26;;;;;;;23.83;11.68;;;;;;;;;;4928060;29;20051;-61
2021/05/16 00:33:53;;;;;;;27.85;11.98;;;;;;;;;;4910022;29;20044;-61
2021/05/16 00:36:20;;;;;;;25.77;12.67;;;;;;;;;;4925383;29;20690;-61
2021/05/16 00:38:47;;;;;;;22.95;9.95;;;;;;;;;;4925118;29;20792;-61
2021/05/16 00:41:13;;;;;;;18.33;10.05;;;;;;;;;;4927390;29;20115;-61
2021/05/16 00:43:40;;;;;;;25.20;10.88;;;;;;;;;;4920821;29;20513;-61
2021/05/16 00:46:09;;;;;;;19.88;9.18;;;;;;;;;;4907111;29;20044;-61
2021/05/16 00:48:37;;;;;;;23.52;10.88;;;;;;;;;;4923661;29;20111;-61
2021/05/16 00:51:04;;;;;;;;;;;;;;;;;;4922994;29;20049;-61
2021/05/16 00:53:31;;;;;;;19.88;10.27;;;;;;;;;;4923478;29;19982;-61
2021/05/16 00:56:00;;;;;;;19.15;10.68;;;;;;;;;;4913661;29;20071;-61
2021/05/16 00:58:32;;;;;;;20.10;10.43;;;;;;;;;;4910947;29;20039;-61
2021/05/16 01:00:59;;;;;;;21.95;12.05;;;;;;;;;;4923946;29;20127;-61
2021/05/16 01:03:30;;;;;;;19.67;9.65;;;;;;;;;;4913516;29;20067;-61
2021/05/16 01:05:56;;;;;;;17.50;10.52;;;;;;;;;;4927199;29;20054;-62
2021/05/16 01:08:30;;;;;;;29.17;11.23;;;;;;;;;;4908812;29;20067;-61
2021/05/16 01:10:57;;;;;;;28.42;11.50;;;;;;;;;;4925698;29;20041;-61
2021/05/16 01:13:26;;;;;;;18.63;11.20;;;;;;;;;;4927205;29;20335;-61
2021/05/16 01:15:52;;;;;;;19.48;10.73;;;;;;;;;;4922624;29;20484;-61
2021/05/16 01:18:19;;;;;;;17.10;9.45;;;;;;;;;;4913781;29;20955;-61
2021/05/16 01:20:49;;;;;;;28.48;12.00;;;;;;;;;;4931120;29;20054;-61
2021/05/16 01:23:25;;;;;;;20.38;10.98;;;;;;;;;;4904862;29;20057;-61
2021/05/16 01:25:57;;;;;;;22.10;11.38;;;;;;;;;;4907606;29;20052;-61
2021/05/16 01:28:25;;;;;;;25.45;11.07;;;;;;;;;;4929571;29;20067;-61
2021/05/16 01:30:52;;;;;;;18.38;11.25;;;;;;;;;;4913122;29;20040;-61
2021/05/16 01:33:19;;;;;;;20.38;10.05;;;;;;;;;;4948694;28;20055;-61
2021/05/16 01:35:48;;;;;;;18.90;9.85;;;;;;;;;;4930513;29;20039;-61
2021/05/16 01:38:15;;;;;;;18.40;9.98;;;;;;;;;;4928513;28;20058;-61
2021/05/16 01:40:42;;;;;;;16.98;8.20;;;;;;;;;;4941896;28;20061;-61
2021/05/16 01:43:19;;;;;;;21.35;8.82;;;;;;;;;;4934506;28;20062;-61
2021/05/16 01:45:46;;;;;;;18.15;10.75;;;;;;;;;;4941672;28;20047;-61
2021/05/16 01:48:13;;;;;;;16.77;9.93;;;;;;;;;;4930511;28;20055;-61
2021/05/16 01:50:40;;;;;;;25.70;11.02;;;;;;;;;;4941117;28;20104;-61
2021/05/16 01:53:08;;;;;;;23.88;12.07;;;;;;;;;;4943799;28;20134;-61
2021/05/16 01:55:36;;;;;;;28.15;9.80;;;;;;;;;;4943123;28;20047;-61
2021/05/16 01:58:03;;;;;;;24.65;12.00;;;;;;;;;;4945954;28;20036;-61
2021/05/16 02:00:32;;;;;;;26.25;11.27;;;;;;;;;;4922350;29;20047;-61
2021/05/16 02:03:03;;;;;;;29.58;11.07;;;;;;;;;;4933780;29;20059;-61
2021/05/16 02:05:36;;;;;;;20.08;11.05;;;;;;;;;;4940869;28;20047;-61
2021/05/16 02:08:03;;;;;;;18.88;11.10;;;;;;;;;;4942742;28;20627;-61
2021/05/16 02:10:32;;;;;;;21.08;9.55;;;;;;;;;;4942738;28;20032;-61
2021/05/16 02:13:06;;;;;;;19.55;10.40;;;;;;;;;;4948218;28;20070;-61
2021/05/16 02:15:33;;;;;;;16.63;9.80;;;;;;;;;;4940484;28;20098;-61
2021/05/16 02:18:01;;;;;;;20.08;10.55;;;;;;;;;;4948985;28;20031;-61
2021/05/16 02:20:29;;;;;;;24.25;11.18;;;;;;;;;;4939073;29;20051;-61
2021/05/16 02:22:57;;;;;;;18.83;10.93;;;;;;;;;;4929383;29;20070;-61
2021/05/16 02:25:26;;;;;;;20.15;10.15;;;;;;;;;;4930140;29;20061;-61
2021/05/16 02:27:53;;;;;;;17.65;9.93;;;;;;;;;;4945119;28;20043;-61
2021/05/16 02:30:22;;;;;;;17.05;11.18;;;;;;;;;;4932319;29;20048;-61
2021/05/16 02:32:50;;;;;;;18.67;10.85;;;;;;;;;;4908638;29;20067;-61
2021/05/16 02:35:17;;;;;;;;;;;;;;;;;;4923328;29;20051;-61
2021/05/16 02:37:50;;;;;;;13.88;9.30;;;;;;;;;;4911787;29;19937;-61
2021/05/16 02:40:17;;;;;;;15.45;9.70;;;;;;;;;;4922682;29;20181;-61
2021/05/16 02:42:45;;;;;;;17.27;9.07;;;;;;;;;;4906400;29;20070;-61
2021/05/16 02:45:12;;;;;;;20.35;9.88;;;;;;;;;;4932609;29;20488;-61
2021/05/16 02:47:39;;;;;;;28.50;10.70;;;;;;;;;;4930027;29;20064;-61
2021/05/16 02:50:09;;;;;;;17.48;9.52;;;;;;;;;;4930046;29;20047;-62
2021/05/16 02:52:57;;;;;;;16.20;9.18;;;;;;;;;;4929962;29;20133;-61
2021/05/16 02:55:27;;;;;;;22.40;10.57;;;;;;;;;;4912673;29;20082;-61
2021/05/16 02:57:54;;;;;;;15.40;9.20;;;;;;;;;;4924565;29;20175;-62
2021/05/16 03:00:26;;;;;;;25.85;10.27;;;;;;;;;;4927356;29;20048;-61
2021/05/16 03:02:54;;;;;;;20.83;10.18;;;;;;;;;;4925767;29;20501;-62
2021/05/16 03:05:21;;;;;;;15.50;9.03;;;;;;;;;;4931142;29;20377;-61
2021/05/16 03:07:48;;;;;;;21.63;10.13;;;;;;;;;;4929862;29;20039;-61
2021/05/16 03:10:16;;;;;;;21.02;9.70;;;;;;;;;;4925549;29;20040;-61
2021/05/16 03:12:43;;;;;;;15.90;10.30;;;;;;;;;;4909165;29;20052;-61
2021/05/16 03:15:11;;;;;;;14.57;9.65;;;;;;;;;;4912011;29;20041;-61
2021/05/16 03:17:38;;;;;;;22.17;9.63;;;;;;;;;;4927610;29;20051;-62
2021/05/16 03:20:07;;;;;;;20.73;9.55;;;;;;;;;;4912156;29;20074;-61
2021/05/16 03:22:36;;;;;;;17.33;9.57;;;;;;;;;;4905966;29;20048;-62
2021/05/16 03:25:04;;;;;;;17.02;9.18;;;;;;;;;;4926252;29;20114;-61
2021/05/16 03:27:32;;;;;;;22.23;9.57;;;;;;;;;;4920656;29;20154;-61
2021/05/16 03:29:58;;;;;;;15.73;8.73;;;;;;;;;;4926117;29;20063;-62
2021/05/16 03:32:25;;;;;;;17.88;9.00;;;;;;;;;;4930806;28;20606;-62
2021/05/16 03:34:52;;;;;;;14.40;9.85;;;;;;;;;;4947272;28;20059;-62
2021/05/16 03:37:19;;;;;;;18.08;9.80;;;;;;;;;;4940526;28;20055;-62
2021/05/16 03:39:45;;;;;;;20.77;10.10;;;;;;;;;;4945900;28;20126;-61
2021/05/16 03:42:12;;;;;;;15.73;9.73;;;;;;;;;;4943795;28;20149;-62
2021/05/16 03:44:39;;;;;;;18.80;10.80;;;;;;;;;;4941735;28;20036;-61
2021/05/16 03:47:06;;;;;;;18.40;9.10;;;;;;;;;;4944529;28;20088;-63
2021/05/16 03:49:32;;;;;;;13.05;8.85;;;;;;;;;;4946060;28;20130;-62
2021/05/16 03:51:59;;;;;;;19.23;9.45;;;;;;;;;;4941483;28;20523;-62
2021/05/16 03:54:27;;;;;;;14.38;9.02;;;;;;;;;;4942890;28;20035;-61
2021/05/16 03:56:54;;;;;;;18.60;9.30;;;;;;;;;;4942762;28;20555;-62
2021/05/16 03:59:23;;;;;;;14.65;8.02;;;;;;;;;;4946764;28;20051;-62
2021/05/16 04:01:51;;;;;;;18.48;7.93;;;;;;;;;;4946284;28;20599;-61
2021/05/16 04:04:18;;;;;;;14.75;7.80;;;;;;;;;;4946754;28;20561;-62
2021/05/16 04:06:45;;;;;;;15.00;8.23;;;;;;;;;;4942880;28;20048;-62
2021/05/16 04:09:12;;;;;;;14.80;8.75;;;;;;;;;;4946907;28;20378;-61
2021/05/16 04:11:39;;;;;;;17.58;8.55;;;;;;;;;;4940440;28;20079;-62
2021/05/16 04:14:06;;;;;;;16.37;9.50;;;;;;;;;;4947669;28;20043;-61
2021/05/16 04:16:34;;;;;;;14.95;8.35;;;;;;;;;;4944089;28;20295;-62
2021/05/16 04:19:01;;;;;;;18.08;8.45;;;;;;;;;;4942525;29;20039;-62
2021/05/16 04:21:28;;;;;;;11.77;7.60;;;;;;;;;;4942941;28;20114;-62
2021/05/16 04:23:55;;;;;;;19.27;8.80;;;;;;;;;;4923365;29;20048;-61
2021/05/16 04:26:22;;;;;;;15.88;8.40;;;;;;;;;;4947176;28;20298;-61
2021/05/16 04:28:49;;;;;;;12.20;7.22;;;;;;;;;;4944481;28;20161;-62
2021/05/16 04:31:16;;;;;;;12.13;8.27;;;;;;;;;;4947928;28;20059;-61
2021/05/16 04:33:42;;;;;;;13.57;8.48;;;;;;;;;;4926102;29;20047;-62
2021/05/16 04:36:09;;;;;;;19.90;7.70;;;;;;;;;;4927409;29;20475;-61
2021/05/16 04:38:36;;;;;;;12.52;7.88;;;;;;;;;;4919930;29;20294;-61
2021/05/16 04:41:03;;;;;;;11.43;7.10;;;;;;;;;;4913143;29;20099;-62
2021/05/16 04:43:30;;;;;;;10.00;6.67;;;;;;;;;;4926712;29;20287;-61
2021/05/16 04:45:57;;;;;;;10.90;6.85;;;;;;;;;;4924669;29;20716;-62
2021/05/16 04:48:23;;;;;;;10.32;6.63;;;;;;;;;;4924279;29;20147;-62
2021/05/16 04:50:52;;;;;;;12.07;6.93;;;;;;;;;;4926595;29;20047;-61
2021/05/16 04:53:19;;;;;;;11.30;7.45;;;;;;;;;;4909065;29;20056;-61
2021/05/16 04:55:46;;;;;;;16.00;6.22;;;;;;;;;;4925287;29;20051;-62
2021/05/16 04:58:13;;;;;;;15.35;6.75;;;;;;;;;;4925357;29;20123;-62
2021/05/16 05:00:40;;;;;;;11.77;6.50;;;;;;;;;;4927389;29;20044;-61
2021/05/16 05:03:06;;;;;;;12.10;6.95;;;;;;;;;;4923599;29;20095;-62
2021/05/16 05:05:33;;;;;;;9.60;6.93;;;;;;;;;;4927627;29;20076;-62
2021/05/16 05:08:00;;;;;;;9.95;7.00;;;;;;;;;;4923111;29;20044;-61
2021/05/16 05:10:27;;;;;;;10.38;7.07;;;;;;;;;;4924295;29;20055;-62
2021/05/16 05:12:54;;;;;;;11.88;6.82;;;;;;;;;;4921149;29;20051;-62
2021/05/16 05:15:22;;;;;;;14.13;6.40;;;;;;;;;;4911750;29;20499;-62
2021/05/16 05:17:49;;;;;;;16.33;7.30;;;;;;;;;;4929383;29;20127;-62
2021/05/16 05:20:15;;;;;;;11.63;7.18;;;;;;;;;;4928393;29;20403;-62
2021/05/16 05:22:43;;;;;;;16.55;7.13;;;;;;;;;;4925729;29;20075;-62
2021/05/16 05:25:10;;;;;;;14.32;6.50;;;;;;;;;;4920234;29;20135;-62
2021/05/16 05:27:37;;;;;;;9.93;6.60;;;;;;;;;;4924383;29;20563;-62
2021/05/16 05:30:04;;;;;;;12.02;6.03;;;;;;;;;;4931829;29;20099;-61
2021/05/16 05:32:31;;;;;;;10.30;5.82;;;;;;;;;;4920422;29;20147;-62
2021/05/16 05:34:58;;;;;;;13.77;6.95;;;;;;;;;;4946333;28;20051;-62
2021/05/16 05:37:25;;;;;;;9.73;6.13;;;;;;;;;;4941869;28;20051;-62
2021/05/16 05:39:52;;;;;;;9.80;5.17;;;;;;;;;;4949166;28;20050;-62
2021/05/16 05:42:19;;;;;;;11.50;5.18;;;;;;;;;;4943350;28;20050;-62
2021/05/16 05:44:46;;;;;;;12.07;5.80;;;;;;;;;;4947465;28;20047;-62
2021/05/16 05:47:12;;;;;;;11.40;5.75;;;;;;;;;;4944077;28;20053;-62
2021/05/16 05:49:39;;;;;;;11.30;5.35;;;;;;;;;;4926956;28;20571;-62
2021/05/16 05:52:06;;;;;;;9.40;5.13;;;;;;;;;;4945230;28;20392;-62
2021/05/16 05:54:34;;;;;;;9.35;5.32;;;;;;;;;;4946827;28;20048;-62
2021/05/16 05:57:01;;;;;;;10.93;5.00;;;;;;;;;;4941254;28;20046;-62
2021/05/16 05:59:28;;;;;;;10.85;4.85;;;;;;;;;;4939977;28;20094;-62
2021/05/16 06:01:55;;;;;;;8.80;4.88;;;;;;;;;;4945670;28;20039;-62
2021/05/16 06:04:22;;;;;;;7.75;4.93;;;;;;;;;;4945769;28;20055;-62
2021/05/16 06:06:49;;;;;;;11.10;5.43;;;;;;;;;;4932777;29;20091;-62
2021/05/16 06:09:17;;;;;;;11.68;5.10;;;;;;;;;;4947979;28;20082;-62
2021/05/16 06:11:43;;;;;;;10.43;5.30;;;;;;;;;;4940550;28;20039;-62
2021/05/16 06:14:10;;;;;;;12.10;5.00;;;;;;;;;;4948634;28;20103;-62
2021/05/16 06:16:37;;;;;;;7.68;4.90;;;;;;;;;;4949622;29;20047;-61
2021/05/16 06:19:04;;;;;;;7.63;4.87;;;;;;;;;;4944964;28;20821;-61
2021/05/16 06:21:31;;;;;;;10.43;5.03;;;;;;;;;;4946683;28;20134;-62
2021/05/16 06:24:10;;;;;;;9.75;4.80;;;;;;;;;;4949033;28;20087;-62
2021/05/16 06:26:39;;;;;;;6.90;4.70;;;;;;;;;;4936532;28;20055;-61
2021/05/16 06:29:06;;;;;;;5.57;4.38;;;;;;;;;;4952178;28;20043;-61
2021/05/16 06:31:34;;;;;;;6.88;4.38;;;;;;;;;;4944716;28;20059;-61
2021/05/16 06:34:01;;;;;;;8.88;4.50;;;;;;;;;;4924796;28;20123;-62
2021/05/16 06:36:28;;;;;;;11.50;4.70;;;;;;;;;;4923440;29;20095;-62
2021/05/16 06:38:55;;;;;;;7.90;3.57;;;;;;;;;;4927595;29;20123;-61
2021/05/16 06:41:23;;;;;;;8.15;4.20;;;;;;;;;;4932989;29;20047;-61
2021/05/16 06:43:50;;;;;;;5.18;3.40;;;;;;;;;;4931915;29;20412;-61
2021/05/16 06:46:17;;;;;;;7.03;4.40;;;;;;;;;;4931832;29;20047;-61
2021/05/16 06:48:43;;;;;;;5.95;3.78;;;;;;;;;;4930965;29;20083;-61
2021/05/16 06:51:12;;;;;;;7.70;3.92;;;;;;;;;;4912208;29;20461;-61
2021/05/16 06:53:39;;;;;;;7.47;3.78;;;;;;;;;;4931788;29;20138;-61
2021/05/16 06:56:11;;;;;;;5.53;3.13;;;;;;;;;;4934498;29;20047;-61
2021/05/16 06:58:38;;;;;;;6.72;3.50;;;;;;;;;;4931422;29;20389;-61
2021/05/16 07:01:05;;;;;;;6.75;3.95;;;;;;;;;;4931701;29;20066;-61
2021/05/16 07:03:35;;;;;;;;;;;;;;;;;;4931380;29;20118;-61
2021/05/16 07:06:02;;;;;;;8.52;3.65;;;;;;;;;;4915381;29;19929;-60
2021/05/16 07:08:28;;;;;;;6.70;3.60;;;;;;;;;;4926167;29;20058;-61
2021/05/16 07:10:55;;;;;;;5.60;3.22;;;;;;;;;;4925946;29;20040;-60
2021/05/16 07:13:22;;;;;;;6.93;3.40;;;;;;;;;;4928390;29;20051;-60
2021/05/16 07:15:49;;;;;;;5.55;3.20;;;;;;;;;;4926747;29;20076;-60
2021/05/16 07:18:16;;;;;;;5.80;2.80;;;;;;;;;;4907409;29;20047;-60
2021/05/16 07:20:43;;;;;;;5.63;2.92;;;;;;;;;;4932045;29;20147;-60
2021/05/16 07:23:10;;;;;;;4.23;3.00;;;;;;;;;;4894910;29;20100;-61
2021/05/16 07:25:36;;;;;;;3.42;2.72;;;;;;;;;;4891624;29;20049;-60
2021/05/16 07:28:03;;;;;;;5.30;2.93;;;;;;;;;;4872948;29;20061;-60
2021/05/16 07:30:32;;;;;;;8.70;3.13;;;;;;;;;;4883428;29;20036;-60
2021/05/16 07:33:01;;;;;;;7.60;3.38;;;;;;;;;;4902690;29;20040;-60
2021/05/16 07:35:27;;;;;;;4.22;2.63;;;;;;;;;;4902809;29;20133;-60
2021/05/16 07:37:54;;;;;;;4.15;2.70;;;;;;;;;;4905614;29;20512;-60
2021/05/16 07:40:21;;;;;;;4.72;3.00;;;;;;;;;;4904143;29;20050;-60
2021/05/16 07:42:49;;;;;;;5.28;3.35;;;;;;;;;;4905937;29;20100;-59
2021/05/16 07:45:17;;;;;;;5.97;3.40;;;;;;;;;;4904529;29;20342;-60
2021/05/16 07:47:44;;;;;;;6.50;2.95;;;;;;;;;;4904308;29;20047;-59
2021/05/16 07:50:12;;;;;;;6.95;2.80;;;;;;;;;;4908412;29;20037;-60
2021/05/16 07:52:38;;;;;;;;;;;;;;;;;;4912548;29;20127;-60
2021/05/16 07:55:05;;;;;;;4.65;3.03;;;;;;;;;;4911274;29;19923;-59
2021/05/16 07:57:32;;;;;;;6.63;2.97;;;;;;;;;;4910215;29;20040;-60
2021/05/16 08:00:06;;;;;;;6.50;2.55;;;;;;;;;;4908646;29;20460;-60
2021/05/16 08:02:40;;;;;;;4.78;2.60;;;;;;;;;;4911231;29;20060;-60
2021/05/16 08:05:07;;;;;;;7.28;3.13;;;;;;;;;;4904514;29;20040;-60
2021/05/16 08:07:34;;;;;;;5.20;3.10;;;;;;;;;;4911778;29;20132;-60
2021/05/16 08:10:01;;;;;;;6.00;3.05;;;;;;;;;;4910649;29;20048;-60
2021/05/16 08:12:28;;;;;;;4.82;3.30;;;;;;;;;;4906333;29;20052;-60
2021/05/16 08:14:55;;;;;;;9.02;3.70;;;;;;;;;;4906062;29;20048;-60
2021/05/16 08:17:21;;;;;;;6.47;3.75;;;;;;;;;;4904770;29;20048;-60
2021/05/16 08:19:48;;;;;;;10.25;3.88;;;;;;;;;;4910131;29;20044;-60
2021/05/16 08:22:15;;;;;;;7.93;3.28;;;;;;;;;;4909622;29;20572;-60
2021/05/16 08:24:41;;;;;;;5.88;3.63;;;;;;;;;;4907959;29;20048;-60
2021/05/16 08:27:08;;;;;;;9.02;4.03;;;;;;;;;;4908865;29;20432;-60
2021/05/16 08:29:36;;;;;;;9.25;3.40;;;;;;;;;;4907165;29;20047;-60
2021/05/16 08:32:03;;;;;;;;;;;;;;;;;;4903922;29;20053;-60
2021/05/16 08:34:30;;;;;;;8.70;3.97;;;;;;;;;;4893224;29;20368;-60
2021/05/16 08:36:57;;;;;;;;;;;;;;;;;;4903264;29;20128;-59
2021/05/16 08:39:24;;;;;;;7.45;3.60;;;;;;;;;;4901067;29;19951;-60
2021/05/16 08:41:50;;;;;;;7.95;4.00;;;;;;;;;;4907358;29;20136;-60
2021/05/16 08:44:20;;;;;;;;;;;;;;;;;;4905186;29;20054;-62
2021/05/16 08:46:48;;;;;;;5.82;3.65;;;;;;;;;;4905706;29;19970;-60
2021/05/16 08:49:15;;;;;;;5.10;3.67;;;;;;;;;;4905369;29;20111;-60
2021/05/16 08:51:49;;;;;;;6.25;3.50;;;;;;;;;;4907225;29;20044;-61
2021/05/16 08:54:20;;;;;;;5.32;3.60;;;;;;;;;;4901976;29;20458;-60
2021/05/16 08:56:53;;;;;;;11.20;4.05;;;;;;;;;;4905844;29;20048;-60
2021/05/16 08:59:20;;;;;;;7.32;4.18;;;;;;;;;;4902065;29;20058;-60
2021/05/16 09:01:49;;;;;;;5.32;3.97;;;;;;;;;;4907315;29;20135;-60
2021/05/16 09:04:20;;;;;;;6.82;4.22;;;;;;;;;;4907194;29;20576;-58
2021/05/16 09:06:50;;;;;;;6.78;4.20;;;;;;;;;;4905861;29;20052;-60
2021/05/16 09:09:23;;;;;;;7.97;3.97;;;;;;;;;;4904417;29;20052;-60
2021/05/16 09:11:56;;;;;;;6.43;4.38;;;;;;;;;;4900476;29;20044;-59
2021/05/16 09:14:43;;;;;;;6.35;4.43;;;;;;;;;;4901966;29;20749;-60
2021/05/16 09:17:25;;;;;;;12.70;4.57;;;;;;;;;;4903445;29;20559;-60
2021/05/16 09:19:53;;;;;;;6.85;4.57;;;;;;;;;;4908553;29;20065;-60
2021/05/16 09:22:19;;;;;;;;;;;;;;;;;;4904688;29;20052;-59
2021/05/16 09:24:46;;;;;;;6.45;4.45;;;;;;;;;;4908411;29;20002;-60
2021/05/16 09:27:22;;;;;;;5.40;3.83;;;;;;;;;;4906549;29;20143;-60
2021/05/16 09:29:48;;;;;;;8.38;4.38;;;;;;;;;;4906089;29;20499;-60
2021/05/16 09:32:18;;;;;;;9.57;5.13;;;;;;;;;;4907138;29;20120;-59
2021/05/16 09:34:45;;;;;;;7.55;4.50;;;;;;;;;;4905342;29;20096;-61
2021/05/16 09:37:12;;;;;;;6.90;4.40;;;;;;;;;;4905866;29;20032;-60
2021/05/16 09:39:44;;;;;;;6.53;4.25;;;;;;;;;;4907081;29;20059;-60
2021/05/16 09:42:13;;;;;;;6.00;4.85;;;;;;;;;;4898039;29;20104;-60
2021/05/16 09:44:40;;;;;;;8.38;4.90;;;;;;;;;;4907098;29;20577;-60
2021/05/16 09:47:14;;;;;;;7.68;4.68;;;;;;;;;;4905971;29;20041;-60
2021/05/16 09:49:45;;;;;;;7.50;4.63;;;;;;;;;;4905099;29;20052;-60
2021/05/16 09:52:13;;;;;;;7.43;4.43;;;;;;;;;;4903589;29;20044;-60
2021/05/16 09:54:51;;;;;;;9.38;5.05;;;;;;;;;;4910174;29;20086;-60
2021/05/16 09:57:19;;;;;;;9.32;5.03;;;;;;;;;;4903785;29;20044;-60
2021/05/16 09:59:46;;;;;;;20.43;8.33;;;;;;;;;;4907518;29;20066;-60
2021/05/16 10:02:15;;;;;;;6.75;4.97;;;;;;;;;;4910553;29;20062;-60
2021/05/16 10:04:46;;;;;;;11.18;4.50;;;;;;;;;;4912572;29;20350;-60
2021/05/16 10:07:13;;;;;;;8.73;4.50;;;;;;;;;;4893514;29;20066;-61
2021/05/16 10:09:40;;;;;;;9.32;4.18;;;;;;;;;;4909437;29;20048;-60
2021/05/16 10:12:07;;;;;;;8.60;4.70;;;;;;;;;;4908713;29;20036;-60
2021/05/16 10:14:36;;;;;;;8.52;4.70;;;;;;;;;;4912354;29;20048;-60
2021/05/16 10:17:03;;;;;;;10.07;5.47;;;;;;;;;;4906269;29;20068;-60
2021/05/16 10:19:38;;;;;;;7.40;4.63;;;;;;;;;;4903740;29;20051;-60
2021/05/16 10:22:07;;;;;;;6.40;4.60;;;;;;;;;;4910227;29;20041;-60
2021/05/16 10:24:37;;;;;;;6.53;4.28;;;;;;;;;;4904189;29;20047;-61
2021/05/16 10:27:14;;;;;;;8.00;4.68;;;;;;;;;;4908533;29;20100;-60
2021/05/16 10:30:07;;;;;;;5.38;4.47;;;;;;;;;;4908340;29;20131;-60
2021/05/16 10:32:35;;;;;;;8.65;4.45;;;;;;;;;;4902984;29;20052;-60
2021/05/16 10:35:05;;;;;;;5.95;4.53;;;;;;;;;;4904994;29;20096;-60
2021/05/16 10:37:40;;;;;;;5.13;4.05;;;;;;;;;;4906589;29;20099;-60
2021/05/16 10:40:22;;;;;;;8.18;4.95;;;;;;;;;;4904639;29;20497;-60
2021/05/16 10:42:59;;;;;;;7.05;5.05;;;;;;;;;;4904519;29;20060;-60
2021/05/16 10:45:27;;;;;;;6.60;4.68;;;;;;;;;;4904759;29;20056;-60
2021/05/16 10:47:54;;;;;;;6.38;4.60;;;;;;;;;;4904299;29;20048;-60
2021/05/16 10:50:23;;;;;;;6.78;4.93;;;;;;;;;;4904707;29;20512;-60
2021/05/16 10:53:00;;;;;;;5.72;4.43;;;;;;;;;;4903231;29;20048;-60
2021/05/16 10:55:31;;;;;;;7.70;4.57;;;;;;;;;;4902700;29;20052;-60
2021/05/16 10:57:59;;;;;;;9.80;4.90;;;;;;;;;;4904390;29;20627;-60
2021/05/16 11:00:27;;;;;;;8.77;4.60;;;;;;;;;;4899820;29;20041;-60
2021/05/16 11:03:01;;;;;;;6.40;4.55;;;;;;;;;;4893448;29;20048;-60
2021/05/16 11:05:51;;;;;;;6.85;4.47;;;;;;;;;;4909248;29;20044;-60
2021/05/16 11:08:18;;;;;;;7.22;3.92;;;;;;;;;;4909498;29;20044;-60
2021/05/16 11:10:52;;;;;;;8.57;4.20;;;;;;;;;;4905987;29;20048;-60
2021/05/16 11:13:20;;;;;;;10.10;4.28;;;;;;;;;;4907946;29;20605;-60
2021/05/16 11:15:48;;;;;;;5.80;4.55;;;;;;;;;;4909420;29;20044;-60
2021/05/16 11:18:17;;;;;;;5.28;4.30;;;;;;;;;;4910753;29;20040;-60
2021/05/16 11:20:50;;;;;;;7.22;4.32;;;;;;;;;;4909887;29;20116;-60
2021/05/16 11:23:27;;;;;;;6.75;4.50;;;;;;;;;;4900616;29;20096;-60
2021/05/16 11:25:57;;;;;;;6.22;4.85;;;;;;;;;;4907346;29;20045;-60
2021/05/16 11:28:25;;;;;;;5.43;4.28;;;;;;;;;;4906738;29;20048;-60
2021/05/16 11:30:53;;;;;;;10.52;4.88;;;;;;;;;;4905500;29;20071;-60
2021/05/16 11:33:19;;;;;;;;;;;;;;;;;;4911793;29;20068;-60
2021/05/16 11:35:49;;;;;;;7.75;4.57;;;;;;;;;;4907785;29;19926;-60
2021/05/16 11:38:23;;;;;;;6.65;4.32;;;;;;;;;;4908235;29;20044;-61
2021/05/16 11:40:50;;;;;;;7.22;4.55;;;;;;;;;;4908621;29;20059;-60
2021/05/16 11:43:25;;;;;;;9.20;5.50;;;;;;;;;;4905401;29;20064;-60
2021/05/16 11:45:52;;;;;;;5.53;4.57;;;;;;;;;;4908053;29;20324;-60
2021/05/16 11:48:30;;;;;;;10.10;4.75;;;;;;;;;;4908570;29;20040;-60
2021/05/16 11:51:05;;;;;;;10.00;4.68;;;;;;;;;;4892296;29;20056;-60
2021/05/16 11:53:32;;;;;;;8.80;5.10;;;;;;;;;;4908765;29;20040;-60
2021/05/16 11:56:02;;;;;;;7.70;4.55;;;;;;;;;;4909781;29;20575;-60
2021/05/16 11:58:30;;;;;;;6.15;5.15;;;;;;;;;;4903260;29;20056;-60
2021/05/16 12:00:58;;;;;;;8.25;5.10;;;;;;;;;;4904621;29;20051;-60
2021/05/16 12:03:25;;;;;;;7.68;4.72;;;;;;;;;;4910835;29;20490;-60
2021/05/16 12:06:02;;;;;;;6.68;4.85;;;;;;;;;;4909916;29;20071;-60
2021/05/16 12:08:29;;;;;;;5.30;4.53;;;;;;;;;;4910117;29;20408;-60
2021/05/16 12:11:06;;;;;;;8.32;4.95;;;;;;;;;;4906183;29;20051;-60
2021/05/16 12:13:35;;;;;;;6.18;5.00;;;;;;;;;;4909938;29;20072;-60
2021/05/16 12:16:18;;;;;;;9.90;4.72;;;;;;;;;;4915196;29;20127;-60
2021/05/16 12:18:47;;;;;;;8.85;4.80;;;;;;;;;;4910248;29;20060;-60
2021/05/16 12:21:14;;;;;;;6.70;4.60;;;;;;;;;;4904085;29;20044;-60
2021/05/16 12:23:56;;;;;;;5.22;4.10;;;;;;;;;;4908890;29;20051;-60
2021/05/16 12:26:23;;;;;;;7.88;4.00;;;;;;;;;;4903230;29;20051;-60
2021/05/16 12:28:50;;;;;;;6.18;4.38;;;;;;;;;;4909846;29;20040;-60
2021/05/16 12:31:18;;;;;;;10.38;4.60;;;;;;;;;;4904236;29;20080;-60
2021/05/16 12:33:46;;;;;;;9.55;4.82;;;;;;;;;;4906789;29;20070;-60
2021/05/16 12:36:13;;;;;;;;;;;;;;;;;;4907899;29;20036;-60
2021/05/16 12:38:41;;;;;;;8.90;4.53;;;;;;;;;;4904008;29;19935;-60
2021/05/16 12:41:11;;;;;;;7.97;4.53;;;;;;;;;;4907234;29;20573;-60
2021/05/16 12:43:38;;;;;;;6.07;4.13;;;;;;;;;;4904441;29;20042;-60
2021/05/16 12:46:05;;;;;;;5.17;4.23;;;;;;;;;;4908121;29;20477;-60
2021/05/16 12:48:32;;;;;;;6.75;4.13;;;;;;;;;;4902453;29;20045;-60
2021/05/16 12:50:59;;;;;;;6.00;4.07;;;;;;;;;;4906983;29;20047;-60
2021/05/16 12:53:34;;;;;;;6.43;4.03;;;;;;;;;;4908616;29;20079;-59
2021/05/16 12:56:15;;;;;;;6.30;4.45;;;;;;;;;;4904494;29;20143;-61
2021/05/16 12:59:00;;;;;;;7.05;4.30;;;;;;;;;;4904881;29;20052;-60
2021/05/16 13:01:28;;;;;;;8.65;4.22;;;;;;;;;;4901242;29;20040;-60
2021/05/16 13:03:57;;;;;;;8.27;4.63;;;;;;;;;;4900618;29;20124;-60
2021/05/16 13:06:30;;;;;;;6.07;4.32;;;;;;;;;;4903667;29;20088;-60
2021/05/16 13:08:58;;;;;;;6.70;3.90;;;;;;;;;;4906712;29;20040;-59
2021/05/16 13:11:25;;;;;;;5.88;3.97;;;;;;;;;;4910394;29;20490;-59
2021/05/16 13:14:02;;;;;;;12.30;4.20;;;;;;;;;;4910244;29;20402;-59
2021/05/16 13:16:36;;;;;;;8.70;5.07;;;;;;;;;;4907270;29;20051;-59
2021/05/16 13:19:03;;;;;;;7.72;4.97;;;;;;;;;;4902806;29;20100;-59
2021/05/16 13:21:33;;;;;;;6.80;4.57;;;;;;;;;;4906901;29;20500;-59
2021/05/16 13:24:01;;;;;;;5.88;4.72;;;;;;;;;;4890021;29;20056;-59
2021/05/16 13:26:57;;;;;;;7.88;4.68;;;;;;;;;;4911071;29;20463;-59
2021/05/16 13:29:25;;;;;;;8.10;5.00;;;;;;;;;;4909006;29;20044;-60
2021/05/16 13:31:52;;;;;;;7.10;4.65;;;;;;;;;;4911675;29;20063;-60
2021/05/16 13:34:19;;;;;;;16.13;5.80;;;;;;;;;;4905891;29;20059;-60
2021/05/16 13:36:49;;;;;;;7.25;4.55;;;;;;;;;;4905838;29;20048;-60
2021/05/16 13:39:17;;;;;;;8.15;5.10;;;;;;;;;;4903257;29;20587;-60
2021/05/16 13:41:43;;;;;;;6.35;4.95;;;;;;;;;;4906770;29;20127;-60
2021/05/16 13:44:10;;;;;;;5.57;4.75;;;;;;;;;;4904067;29;20044;-60
2021/05/16 13:46:37;;;;;;;8.68;4.78;;;;;;;;;;4910817;29;20072;-60
2021/05/16 13:49:04;;;;;;;6.10;5.17;;;;;;;;;;4909672;29;20504;-60
2021/05/16 13:51:32;;;;;;;;;;;;;;;;;;4906451;29;20049;-59
2021/05/16 13:53:59;;;;;;;5.57;4.30;;;;;;;;;;4908227;29;20010;-59
2021/05/16 13:56:26;;;;;;;7.82;4.38;;;;;;;;;;4906417;29;20044;-59
2021/05/16 13:58:54;;;;;;;4.30;3.90;;;;;;;;;;4913039;29;20031;-60
2021/05/16 14:01:20;;;;;;;5.32;4.07;;;;;;;;;;4902379;29;20566;-59
2021/05/16 14:03:47;;;;;;;6.70;3.85;;;;;;;;;;4906118;29;20063;-59
2021/05/16 14:06:14;;;;;;;8.23;4.72;;;;;;;;;;4905640;29;20556;-59
2021/05/16 14:08:41;;;;;;;6.17;4.20;;;;;;;;;;4902138;29;20152;-59
2021/05/16 14:11:08;;;;;;;8.55;4.38;;;;;;;;;;4905503;29;20052;-59
2021/05/16 14:13:36;;;;;;;5.50;4.03;;;;;;;;;;4905618;29;20085;-59
2021/05/16 14:16:03;;;;;;;6.20;3.88;;;;;;;;;;4906663;29;20143;-59
2021/05/16 14:18:30;;;;;;;6.60;4.00;;;;;;;;;;4908290;29;20149;-59
2021/05/16 14:20:56;;;;;;;7.00;3.80;;;;;;;;;;4908033;29;20476;-59
2021/05/16 14:23:23;;;;;;;5.57;4.18;;;;;;;;;;4905169;29;20340;-59
2021/05/16 14:25:49;;;;;;;6.32;4.57;;;;;;;;;;4903534;29;20135;-59
2021/05/16 14:28:16;;;;;;;6.23;4.40;;;;;;;;;;4902702;29;20509;-59
2021/05/16 14:30:45;;;;;;;9.80;4.50;;;;;;;;;;4904682;29;20076;-59
2021/05/16 14:33:13;;;;;;;6.10;4.45;;;;;;;;;;4906172;29;20044;-59
2021/05/16 14:35:40;;;;;;;8.88;5.28;;;;;;;;;;4905142;29;20056;-59
2021/05/16 14:38:07;;;;;;;8.65;5.68;;;;;;;;;;4909324;29;20045;-59
2021/05/16 14:40:33;;;;;;;7.32;4.07;;;;;;;;;;4914781;29;20423;-60
2021/05/16 14:43:01;;;;;;;3.00;2.70;;;;;;;;;;4894935;29;20252;-59
2021/05/16 14:45:27;;;;;;;3.35;2.63;;;;;;;;;;4913686;29;20467;-59
2021/05/16 14:47:54;;;;;;;3.92;3.00;;;;;;;;;;4910043;29;20044;-59